Time;durP1;ratioP1;P1;durP2;ratioP2;P2;SDS_P1;SDS_P2;PMS_P1;PMS_P2;Temp;Humidity;BMP_temperature;BMP_pressure;BME280_temperature;BME280_humidity;BME280_pressure;Samples;Min_cycle;Max_cycle;Signal;HPM_P1;HPM_P2
2022/11/01 00:01:42;;;;;;;65.37;37.10;;;12.40;94.50;;;;;;5022932;28;20204;-91
2022/11/01 00:04:08;;;;;;;73.13;39.10;;;12.40;94.50;;;;;;5023986;28;20187;-90
2022/11/01 00:06:35;;;;;;;75.27;40.17;;;12.40;94.50;;;;;;5024830;28;20185;-90
2022/11/01 00:09:01;;;;;;;72.73;39.87;;;12.40;94.50;;;;;;5023572;28;20185;-90
2022/11/01 00:11:26;;;;;;;76.00;40.67;;;12.40;94.40;;;;;;5024726;28;20231;-91
2022/11/01 00:13:52;;;;;;;73.03;38.17;;;12.40;94.50;;;;;;5024158;28;20208;-90
2022/11/01 00:16:19;;;;;;;73.93;39.40;;;12.40;94.50;;;;;;5024237;28;20173;-90
2022/11/01 00:18:45;;;;;;;79.30;40.23;;;12.40;94.50;;;;;;5025036;28;20177;-90
2022/11/01 00:21:11;;;;;;;64.20;39.40;;;12.40;94.40;;;;;;5025439;28;20201;-90
2022/11/01 00:23:38;;;;;;;78.10;40.33;;;12.30;94.40;;;;;;5023957;28;20172;-91
2022/11/01 00:26:04;;;;;;;68.40;39.13;;;12.30;94.40;;;;;;5024075;28;20639;-90
2022/11/01 00:28:31;;;;;;;65.53;37.50;;;12.30;94.50;;;;;;5024424;28;20226;-90
2022/11/01 00:30:57;;;;;;;64.13;37.70;;;12.30;94.50;;;;;;5023998;28;20207;-91
2022/11/01 00:33:23;;;;;;;65.90;38.20;;;12.30;94.40;;;;;;5022415;28;20184;-90
2022/11/01 00:35:49;;;;;;;60.63;37.33;;;12.30;94.40;;;;;;5021871;28;20208;-91
2022/11/01 00:38:15;;;;;;;66.70;38.60;;;12.30;94.40;;;;;;5022534;28;20194;-90
2022/11/01 00:40:41;;;;;;;62.73;37.13;;;12.30;94.40;;;;;;5039775;28;20168;-91
2022/11/01 00:43:07;;;;;;;62.43;36.37;;;12.30;94.40;;;;;;5022042;28;20196;-91
2022/11/01 00:45:33;;;;;;;65.73;36.33;;;12.30;94.40;;;;;;5021744;28;20191;-91
2022/11/01 00:47:58;;;;;;;67.33;37.13;;;12.30;94.40;;;;;;5021076;28;20215;-91
2022/11/01 00:50:24;;;;;;;61.67;36.37;;;12.30;94.40;;;;;;5024180;28;20188;-90
2022/11/01 00:52:50;;;;;;;56.57;36.63;;;12.30;94.40;;;;;;5023186;28;20197;-90
2022/11/01 00:55:16;;;;;;;64.13;35.83;;;12.30;94.40;;;;;;5021173;28;20201;-91
2022/11/01 00:57:46;;;;;;;61.00;36.07;;;12.20;94.40;;;;;;5021479;28;20176;-91
2022/11/01 01:00:13;;;;;;;70.23;38.40;;;12.30;94.40;;;;;;5021740;28;20311;-90
2022/11/01 01:02:39;;;;;;;56.77;35.33;;;12.30;94.50;;;;;;5022066;28;20196;-90
2022/11/01 01:05:05;;;;;;;64.37;36.47;;;12.30;94.40;;;;;;5025323;28;20387;-90
2022/11/01 01:07:30;;;;;;;60.70;35.90;;;12.30;94.40;;;;;;5024530;28;20634;-90
2022/11/01 01:09:56;;;;;;;56.93;34.77;;;12.30;94.50;;;;;;5023739;28;20188;-87
2022/11/01 01:12:21;;;;;;;58.17;35.17;;;12.30;94.40;;;;;;5024019;28;20197;-89
2022/11/01 01:14:47;;;;;;;58.83;36.03;;;12.30;94.40;;;;;;5024942;28;20299;-89
2022/11/01 01:17:12;;;;;;;62.13;36.10;;;12.20;94.40;;;;;;5024572;28;20179;-89
2022/11/01 01:19:38;;;;;;;54.73;35.37;;;12.30;94.40;;;;;;5026020;28;20666;-89
2022/11/01 01:22:03;;;;;;;59.37;36.03;;;12.30;94.40;;;;;;5024980;28;20208;-89
2022/11/01 01:24:30;;;;;;;56.70;35.63;;;12.30;94.40;;;;;;5024899;28;20188;-89
2022/11/01 01:26:56;;;;;;;58.60;33.63;;;12.30;94.40;;;;;;5024245;28;20276;-89
2022/11/01 01:29:21;;;;;;;57.70;35.83;;;12.20;94.30;;;;;;5024702;28;20246;-89
2022/11/01 01:31:49;;;;;;;61.13;37.73;;;12.30;94.40;;;;;;5042432;28;20564;-89
2022/11/01 01:34:15;;;;;;;58.23;36.37;;;12.30;94.40;;;;;;5024126;28;20215;-90
2022/11/01 01:36:41;;;;;;;63.53;37.37;;;12.30;94.40;;;;;;5023845;28;20184;-89
2022/11/01 01:39:06;;;;;;;60.00;34.33;;;12.30;94.50;;;;;;5023588;28;20293;-89
2022/11/01 01:45:01;;;;;;;60.10;38.27;;;12.40;94.50;;;;;;5045704;28;20537;-89
2022/11/01 01:47:29;;;;;;;64.63;37.87;;;12.50;94.50;;;;;;5045443;28;20172;-89
2022/11/01 01:50:04;;;;;;;57.40;36.30;;;12.50;94.50;;;;;;5027000;28;20185;-90
2022/11/01 01:52:33;;;;;;;67.70;40.73;;;12.50;94.50;;;;;;5027986;28;20199;-89
2022/11/01 01:55:04;;;;;;;64.90;39.67;;;12.50;94.50;;;;;;5028185;28;20201;-89
2022/11/01 01:57:30;;;;;;;61.87;38.67;;;12.50;94.50;;;;;;5028721;28;20629;-89
2022/11/01 01:59:56;;;;;;;63.57;38.40;;;12.50;94.50;;;;;;5028915;28;20259;-89
2022/11/01 02:02:22;;;;;;;61.67;37.30;;;12.50;94.50;;;;;;5027911;28;20197;-89
2022/11/01 02:04:55;;;;;;;63.97;38.80;;;12.50;94.50;;;;;;5045895;28;20237;-89
2022/11/01 02:07:20;;;;;;;66.63;40.73;;;12.50;94.50;;;;;;5027908;28;20165;-89
2022/11/01 02:09:46;;;;;;;61.10;39.60;;;12.50;94.50;;;;;;5028145;28;20187;-89
2022/11/01 02:12:13;;;;;;;69.23;40.87;;;12.50;94.50;;;;;;5027492;28;20295;-89
2022/11/01 02:14:41;;;;;;;69.03;40.33;;;12.50;94.50;;;;;;5027122;28;20243;-89
2022/11/01 02:17:12;;;;;;;76.30;43.20;;;12.50;94.60;;;;;;5027991;28;20177;-89
2022/11/01 02:19:58;;;;;;;74.80;42.37;;;12.60;94.60;;;;;;5027794;28;20522;-90
2022/11/01 02:22:45;;;;;;;72.00;41.07;;;12.60;94.60;;;;;;5028299;28;20201;-89
2022/11/01 02:25:28;;;;;;;76.27;43.70;;;12.60;94.60;;;;;;5027791;28;20172;-89
2022/11/01 02:28:02;;;;;;;76.10;41.90;;;12.70;94.70;;;;;;5045337;28;20295;-89
2022/11/01 02:30:43;;;;;;;76.20;41.23;;;12.70;94.70;;;;;;5027113;28;20172;-89
2022/11/01 02:33:27;;;;;;;72.43;41.33;;;12.70;94.70;;;;;;5027500;28;20216;-89
2022/11/01 02:36:43;;;;;;;76.43;43.47;;;12.70;94.70;;;;;;5026823;28;20203;-90
2022/11/01 02:39:19;;;;;;;78.90;41.97;;;12.80;94.70;;;;;;5020478;28;20184;-89
2022/11/01 02:42:15;;;;;;;79.60;44.57;;;12.80;94.70;;;;;;5026362;28;20747;-90
2022/11/01 02:44:47;;;;;;;80.33;45.37;;;12.80;94.80;;;;;;5026488;28;20169;-89
2022/11/01 02:47:13;;;;;;;81.17;47.27;;;12.80;94.80;;;;;;5027138;28;20175;-89
2022/11/01 02:49:45;;;;;;;85.30;47.53;;;12.80;94.70;;;;;;5026260;28;20208;-89
2022/11/01 02:52:14;;;;;;;82.97;46.20;;;12.80;94.80;;;;;;5026290;28;20211;-90
2022/11/01 02:54:48;;;;;;;83.60;46.97;;;12.80;94.80;;;;;;5026343;28;20256;-89
2022/11/01 02:57:26;;;;;;;79.17;46.60;;;12.80;94.80;;;;;;5026554;28;20615;-89
2022/11/01 02:59:52;;;;;;;87.87;46.37;;;12.80;94.70;;;;;;5025984;28;20186;-89
2022/11/01 03:02:38;;;;;;;88.23;47.90;;;12.80;94.70;;;;;;5026713;28;20207;-89
2022/11/01 03:05:23;;;;;;;85.43;46.77;;;12.80;94.70;;;;;;5025682;28;20177;-90
2022/11/01 03:07:57;;;;;;;86.50;47.50;;;12.80;94.70;;;;;;5026149;28;20195;-89
2022/11/01 03:10:34;;;;;;;78.77;46.33;;;12.80;94.80;;;;;;5044065;28;20165;-89
2022/11/01 03:13:10;;;;;;;86.03;48.43;;;12.80;94.80;;;;;;5026824;28;20200;-89
2022/11/01 03:15:45;;;;;;;87.77;47.80;;;12.80;94.70;;;;;;5026590;28;20204;-89
2022/11/01 03:18:18;;;;;;;86.60;47.90;;;12.80;94.80;;;;;;5026613;28;20175;-89
2022/11/01 03:20:55;;;;;;;83.87;49.23;;;12.80;94.70;;;;;;5025920;28;20165;-90
2022/11/01 03:23:38;;;;;;;85.83;49.23;;;12.90;94.80;;;;;;5026334;28;20170;-89
2022/11/01 03:26:10;;;;;;;86.00;48.57;;;12.90;94.80;;;;;;5026358;28;20232;-89
2022/11/01 03:28:40;;;;;;;84.17;47.97;;;13.00;94.80;;;;;;5026438;28;20200;-89
2022/11/01 03:31:36;;;;;;;89.03;49.87;;;13.00;94.80;;;;;;5026174;28;20185;-89
2022/11/01 03:34:05;;;;;;;79.50;48.40;;;13.00;94.80;;;;;;5023584;28;20212;-89
2022/11/01 03:36:37;;;;;;;88.67;50.33;;;13.10;94.80;;;;;;5026212;28;20699;-89
2022/11/01 03:39:11;;;;;;;79.27;46.43;;;13.10;94.80;;;;;;5025921;28;20588;-90
2022/11/01 03:41:42;;;;;;;103.47;49.70;;;13.10;94.80;;;;;;5025710;28;20200;-89
2022/11/01 03:44:10;;;;;;;95.97;48.90;;;13.10;94.80;;;;;;5026356;28;20654;-89
2022/11/01 03:46:35;;;;;;;84.07;48.53;;;13.10;94.70;;;;;;5025630;28;20188;-89
2022/11/01 03:49:01;;;;;;;82.97;47.77;;;13.10;94.70;;;;;;5024783;28;20181;-89
2022/11/01 03:51:26;;;;;;;85.83;48.60;;;13.10;94.70;;;;;;5024559;28;20243;-90
2022/11/01 03:53:52;;;;;;;87.80;48.93;;;13.10;94.70;;;;;;5041595;28;20191;-89
2022/11/01 03:56:18;;;;;;;90.87;49.40;;;13.10;94.70;;;;;;5025416;28;20557;-90
2022/11/01 03:58:44;;;;;;;96.93;49.23;;;13.00;94.70;;;;;;5042997;28;20264;-89
2022/11/01 04:01:12;;;;;;;84.80;47.60;;;13.10;94.70;;;;;;5041552;28;20176;-89
2022/11/01 04:03:38;;;;;;;86.67;49.47;;;13.10;94.70;;;;;;5024449;28;20177;-89
2022/11/01 04:06:04;;;;;;;82.23;48.50;;;13.00;94.70;;;;;;5022907;28;20173;-89
2022/11/01 04:08:31;;;;;;;90.60;48.47;;;13.00;94.70;;;;;;5025064;28;20173;-89
2022/11/01 04:10:56;;;;;;;87.23;50.50;;;13.10;94.70;;;;;;5024795;28;20173;-89
2022/11/01 04:13:22;;;;;;;80.00;46.17;;;13.10;94.70;;;;;;5040940;28;20639;-90
2022/11/01 04:21:22;;;;;;;86.00;48.77;;;13.10;94.80;;;;;;5042293;28;20199;-89
2022/11/01 04:23:47;;;;;;;84.90;47.97;;;13.10;94.70;;;;;;5041884;28;20187;-89
2022/11/01 04:26:19;;;;;;;92.87;50.80;;;13.20;94.80;;;;;;5023365;28;20223;-90
2022/11/01 04:28:55;;;;;;;84.00;51.30;;;13.20;94.80;;;;;;5023289;28;20188;-90
2022/11/01 04:31:22;;;;;;;79.50;48.37;;;13.10;94.70;;;;;;5021751;28;20203;-90
2022/11/01 04:33:48;;;;;;;94.90;50.00;;;13.10;94.70;;;;;;5021001;28;20181;-90
2022/11/01 04:36:14;;;;;;;86.20;49.73;;;13.10;94.80;;;;;;5021203;28;20232;-89
2022/11/01 04:38:39;;;;;;;88.00;50.70;;;13.10;94.80;;;;;;5021980;28;20227;-90
2022/11/01 04:41:05;;;;;;;85.47;49.00;;;13.10;94.80;;;;;;5039604;28;20203;-90
2022/11/01 04:43:30;;;;;;;85.10;48.67;;;13.10;94.80;;;;;;5023207;28;20643;-89
2022/11/01 04:45:57;;;;;;;78.20;48.10;;;13.00;94.80;;;;;;5044029;28;20256;-89
2022/11/01 04:48:23;;;;;;;81.77;47.20;;;13.10;94.90;;;;;;5041397;28;20570;-90
2022/11/01 04:50:48;;;;;;;82.17;48.40;;;13.10;94.80;;;;;;5023431;28;20678;-89
2022/11/01 04:53:14;;;;;;;84.60;48.90;;;13.10;94.80;;;;;;5024351;28;20196;-90
2022/11/01 04:55:40;;;;;;;78.70;48.30;;;13.20;94.80;;;;;;5022822;28;20725;-90
2022/11/01 04:58:05;;;;;;;88.07;50.53;;;13.20;94.80;;;;;;5022034;28;20635;-89
2022/11/01 05:00:32;;;;;;;88.40;50.47;;;13.10;94.80;;;;;;5021717;28;20189;-89
2022/11/01 05:03:03;;;;;;;91.83;49.20;;;13.20;94.80;;;;;;5022247;28;20239;-90
2022/11/01 05:05:29;;;;;;;80.70;46.83;;;13.20;94.80;;;;;;5021515;28;20180;-89
2022/11/01 05:08:05;;;;;;;89.53;48.57;;;13.20;94.80;;;;;;5039579;28;20181;-89
2022/11/01 05:10:32;;;;;;;80.00;46.90;;;13.20;94.80;;;;;;5021892;28;20239;-90
2022/11/01 05:12:58;;;;;;;78.67;46.90;;;13.20;94.80;;;;;;5021018;28;20204;-90
2022/11/01 05:15:23;;;;;;;85.83;46.93;;;13.20;94.80;;;;;;5022162;28;20574;-90
2022/11/01 05:17:49;;;;;;;79.97;47.27;;;13.20;94.90;;;;;;5026014;28;20504;-89
2022/11/01 05:20:14;;;;;;;83.70;47.23;;;13.10;94.80;;;;;;5025312;28;20181;-90
2022/11/01 05:22:40;;;;;;;82.00;46.93;;;13.20;94.80;;;;;;5024867;28;20197;-89
2022/11/01 05:25:08;;;;;;;84.03;46.80;;;13.10;94.80;;;;;;5026372;28;20202;-89
2022/11/01 05:27:34;;;;;;;81.67;47.40;;;13.20;94.90;;;;;;5025666;28;20539;-90
2022/11/01 05:30:00;;;;;;;92.83;49.93;;;13.20;94.90;;;;;;5024886;28;20215;-90
2022/11/01 05:32:26;;;;;;;86.67;50.63;;;13.20;94.90;;;;;;5025217;28;20200;-89
2022/11/01 05:34:51;;;;;;;86.67;47.47;;;13.20;94.90;;;;;;5024924;28;20619;-89
2022/11/01 05:37:17;;;;;;;81.60;46.10;;;13.20;94.90;;;;;;5024608;28;20212;-89
2022/11/01 05:39:43;;;;;;;75.03;46.00;;;13.20;94.90;;;;;;5025039;28;20176;-89
2022/11/01 05:42:08;;;;;;;73.83;44.70;;;13.20;94.90;;;;;;5025506;28;20218;-89
2022/11/01 05:44:34;;;;;;;75.47;46.20;;;13.20;94.80;;;;;;5024742;28;20272;-90
2022/11/01 05:47:03;;;;;;;80.73;45.57;;;13.20;94.90;;;;;;5024302;28;20184;-90
2022/11/01 05:49:28;;;;;;;86.40;47.90;;;13.20;94.80;;;;;;5024057;28;20242;-90
2022/11/01 05:51:54;;;;;;;79.57;48.30;;;13.20;94.80;;;;;;5041875;28;20189;-89
2022/11/01 05:54:19;;;;;;;80.60;45.77;;;13.20;94.80;;;;;;5042624;28;20566;-89
2022/11/01 05:56:45;;;;;;;80.07;45.47;;;13.20;94.80;;;;;;5024164;28;20231;-90
2022/11/01 05:59:10;;;;;;;84.43;47.67;;;13.20;94.80;;;;;;5024018;28;20193;-90
2022/11/01 06:01:36;;;;;;;76.97;46.27;;;13.20;94.80;;;;;;5026694;28;20192;-90
2022/11/01 06:04:02;;;;;;;79.40;47.40;;;13.20;94.80;;;;;;5024889;28;20176;-89
2022/11/01 06:06:28;;;;;;;79.80;47.43;;;13.20;94.80;;;;;;5023751;28;20549;-89
2022/11/01 06:08:58;;;;;;;79.13;48.77;;;13.30;94.80;;;;;;5024660;28;20198;-89
2022/11/01 06:11:25;;;;;;;78.63;45.30;;;13.30;94.70;;;;;;5023787;28;20196;-89
2022/11/01 06:13:57;;;;;;;74.87;44.27;;;13.30;94.70;;;;;;5023993;28;20600;-89
2022/11/01 06:16:25;;;;;;;77.10;45.97;;;13.20;94.70;;;;;;5041411;28;20188;-90
2022/11/01 06:18:51;;;;;;;77.13;45.43;;;13.30;94.70;;;;;;5023932;28;20173;-90
2022/11/01 06:21:17;;;;;;;73.57;45.43;;;13.30;94.60;;;;;;5041776;28;20698;-90
2022/11/01 06:23:47;;;;;;;73.47;43.13;;;13.30;94.60;;;;;;5024604;28;20180;-90
2022/11/01 06:26:13;;;;;;;74.90;45.63;;;13.30;94.60;;;;;;5022695;28;20654;-90
2022/11/01 06:28:38;;;;;;;68.37;42.77;;;13.20;94.60;;;;;;5023369;28;20199;-89
2022/11/01 06:31:04;;;;;;;65.40;41.50;;;13.30;94.60;;;;;;5023598;28;20173;-90
2022/11/01 06:33:30;;;;;;;69.20;41.20;;;13.30;94.60;;;;;;5023666;28;20200;-90
2022/11/01 06:35:56;;;;;;;68.50;40.83;;;13.30;94.60;;;;;;5023273;28;20214;-90
2022/11/01 06:38:22;;;;;;;69.07;40.33;;;13.30;94.60;;;;;;5024427;28;20256;-89
2022/11/01 06:40:47;;;;;;;65.77;38.67;;;13.40;94.50;;;;;;5023794;28;20176;-90
2022/11/01 06:43:13;;;;;;;62.70;39.27;;;13.40;94.50;;;;;;5023862;28;20200;-90
2022/11/01 06:45:39;;;;;;;67.80;38.73;;;13.40;94.40;;;;;;5024197;28;20176;-90
2022/11/01 06:48:05;;;;;;;65.87;38.47;;;13.50;94.40;;;;;;5021838;28;20635;-87
2022/11/01 06:50:31;;;;;;;61.43;38.73;;;13.50;94.40;;;;;;5024293;28;20250;-88
2022/11/01 06:52:57;;;;;;;58.30;37.33;;;13.50;94.40;;;;;;5023513;28;20196;-87
2022/11/01 06:55:26;;;;;;;59.07;37.37;;;13.50;94.30;;;;;;5023350;28;20200;-88
2022/11/01 06:57:56;;;;;;;59.40;35.53;;;13.50;94.30;;;;;;5022488;28;20207;-90
2022/11/01 07:00:22;;;;;;;54.03;35.83;;;13.50;94.20;;;;;;5025209;28;20194;-89
2022/11/01 07:02:55;;;;;;;56.20;36.07;;;13.50;94.20;;;;;;5023688;28;20204;-89
2022/11/01 07:05:21;;;;;;;58.77;35.07;;;13.50;94.20;;;;;;5024374;28;20173;-89
2022/11/01 07:07:46;;;;;;;54.43;35.97;;;13.50;94.10;;;;;;5023156;28;20554;-89
2022/11/01 07:10:12;;;;;;;53.08;34.95;;;13.60;94.10;;;;;;5041028;28;20180;-89
2022/11/01 07:12:37;;;;;;;53.20;33.00;;;13.60;94.10;;;;;;5022051;28;20204;-89
2022/11/01 07:15:03;;;;;;;53.47;33.87;;;13.70;93.90;;;;;;5021842;28;20603;-89
2022/11/01 07:17:29;;;;;;;54.90;35.07;;;13.70;93.80;;;;;;5022176;28;20203;-89
2022/11/01 07:19:54;;;;;;;56.60;33.20;;;13.70;93.70;;;;;;5022569;28;20211;-88
2022/11/01 07:22:20;;;;;;;49.07;30.33;;;13.70;93.60;;;;;;5021822;28;20572;-89
2022/11/01 07:24:45;;;;;;;51.03;32.53;;;13.80;93.40;;;;;;5022808;28;20180;-88
2022/11/01 07:27:11;;;;;;;52.47;32.60;;;13.80;93.40;;;;;;5022887;28;20177;-89
2022/11/01 07:29:38;;;;;;;45.43;30.33;;;13.80;93.20;;;;;;5040911;28;20601;-89
2022/11/01 07:32:03;;;;;;;44.03;28.17;;;13.90;92.90;;;;;;5039671;28;20632;-89
2022/11/01 07:34:29;;;;;;;47.83;29.43;;;14.00;92.70;;;;;;5020254;28;20285;-89
2022/11/01 07:36:54;;;;;;;49.43;31.27;;;14.00;92.50;;;;;;5020859;28;20173;-89
2022/11/01 07:39:20;;;;;;;42.83;28.60;;;14.00;92.40;;;;;;5017245;28;20686;-89
2022/11/01 07:41:46;;;;;;;47.47;30.77;;;14.10;92.20;;;;;;5019356;28;20200;-89
2022/11/01 07:44:12;;;;;;;45.47;28.03;;;14.10;92.20;;;;;;5037518;28;20651;-89
2022/11/01 07:46:37;;;;;;;47.17;29.00;;;14.10;92.10;;;;;;5019046;28;20172;-89
2022/11/01 07:49:03;;;;;;;47.70;27.13;;;14.10;92.10;;;;;;5020430;28;20192;-90
2022/11/01 07:51:29;;;;;;;44.83;27.63;;;14.10;92.10;;;;;;5037364;28;20251;-89
2022/11/01 07:53:54;;;;;;;42.37;26.40;;;14.20;91.90;;;;;;5020264;28;20180;-89
2022/11/01 07:56:20;;;;;;;36.23;26.07;;;14.20;91.90;;;;;;5019620;28;20176;-89
2022/11/01 07:58:46;;;;;;;37.30;25.97;;;14.20;91.80;;;;;;5019413;28;20177;-89
2022/11/01 08:01:12;;;;;;;38.53;25.60;;;14.30;91.90;;;;;;5019342;28;20203;-89
2022/11/01 08:03:37;;;;;;;37.57;24.90;;;14.40;91.80;;;;;;5018942;28;20199;-89
2022/11/01 08:06:03;;;;;;;37.27;24.63;;;14.40;91.60;;;;;;5019743;28;20185;-89
2022/11/01 08:08:28;;;;;;;35.27;24.27;;;14.50;91.60;;;;;;5019298;28;20669;-89
2022/11/01 08:10:54;;;;;;;38.87;23.53;;;14.60;91.50;;;;;;5019058;28;20220;-89
2022/11/01 08:13:24;;;;;;;34.43;22.37;;;14.70;91.30;;;;;;5018700;28;20231;-89
2022/11/01 08:15:52;;;;;;;33.63;21.67;;;14.80;91.00;;;;;;5018880;28;20209;-88
2022/11/01 08:18:21;;;;;;;39.03;21.77;;;14.80;91.10;;;;;;5019097;28;20561;-89
2022/11/01 08:20:46;;;;;;;32.58;21.80;;;14.80;90.90;;;;;;5036317;28;20576;-89
2022/11/01 08:23:12;;;;;;;29.30;19.23;;;14.80;90.90;;;;;;5018863;28;20239;-89
2022/11/01 08:25:38;;;;;;;26.73;19.48;;;14.90;90.60;;;;;;5018206;28;20236;-88
2022/11/01 08:28:14;;;;;;;32.20;17.92;;;14.90;90.50;;;;;;5035017;28;20235;-89
2022/11/01 08:30:42;;;;;;;27.80;14.40;;;15.00;89.80;;;;;;5017808;28;20180;-89
2022/11/01 08:33:08;;;;;;;25.73;14.75;;;15.10;89.30;;;;;;5018570;28;20704;-89
2022/11/01 08:35:34;;;;;;;25.83;15.43;;;15.30;88.60;;;;;;5017782;28;20205;-89
2022/11/01 08:38:00;;;;;;;23.02;11.90;;;15.30;88.60;;;;;;5018356;28;20173;-89
2022/11/01 08:40:27;;;;;;;23.30;12.50;;;15.30;88.20;;;;;;5018174;28;20700;-89
2022/11/01 08:42:52;;;;;;;24.65;12.30;;;15.40;88.20;;;;;;5018299;28;20201;-89
2022/11/01 08:45:18;;;;;;;23.65;13.60;;;15.40;88.00;;;;;;5018620;28;20291;-89
2022/11/01 08:47:44;;;;;;;18.60;10.93;;;15.50;87.80;;;;;;5018153;28;20180;-89
2022/11/01 08:50:12;;;;;;;23.50;10.80;;;15.50;87.60;;;;;;5016398;28;20203;-87
2022/11/01 08:52:39;;;;;;;15.75;9.30;;;15.60;87.20;;;;;;5016225;28;20201;-87
2022/11/01 08:55:06;;;;;;;19.42;10.52;;;15.80;86.80;;;;;;5016269;28;20294;-87
2022/11/01 08:57:31;;;;;;;13.57;9.73;;;15.80;87.00;;;;;;5016632;28;20184;-87
2022/11/01 08:59:57;;;;;;;17.10;9.13;;;15.80;86.70;;;;;;5016383;28;20176;-87
2022/11/01 09:02:23;;;;;;;15.73;9.38;;;15.90;86.50;;;;;;5016431;28;20686;-87
2022/11/01 09:04:48;;;;;;;15.88;9.73;;;16.00;86.70;;;;;;5016154;28;20187;-87
2022/11/01 09:07:14;;;;;;;13.13;9.20;;;16.00;86.30;;;;;;5017472;28;20172;-89
2022/11/01 09:09:39;;;;;;;15.05;8.13;;;15.90;86.50;;;;;;5017315;28;20180;-88
2022/11/01 09:12:05;;;;;;;12.95;7.53;;;15.90;86.20;;;;;;5017045;28;20218;-89
2022/11/01 09:14:31;;;;;;;14.02;7.90;;;16.00;85.70;;;;;;5017263;28;20208;-89
2022/11/01 09:16:56;;;;;;;11.57;7.72;;;16.00;86.00;;;;;;5017026;28;20547;-89
2022/11/01 09:19:22;;;;;;;16.52;7.60;;;16.00;85.70;;;;;;5016227;28;20188;-89
2022/11/01 09:21:48;;;;;;;11.65;7.53;;;16.00;85.70;;;;;;5033249;28;20198;-87
2022/11/01 09:24:15;;;;;;;15.38;6.40;;;16.10;84.90;;;;;;5033992;28;20259;-88
2022/11/01 09:26:41;;;;;;;20.45;6.75;;;16.10;84.80;;;;;;5033672;28;20180;-88
2022/11/01 09:29:06;;;;;;;13.50;6.47;;;16.10;84.70;;;;;;5015996;28;20188;-87
2022/11/01 09:31:32;;;;;;;8.52;5.57;;;16.00;84.70;;;;;;5016829;28;20686;-89
2022/11/01 09:33:59;;;;;;;12.45;5.03;;;16.20;83.90;;;;;;5017464;28;20196;-88
2022/11/01 09:36:26;;;;;;;11.95;5.60;;;16.10;83.50;;;;;;5017802;28;20648;-90
2022/11/01 10:21:31;;;;;;;3.20;2.40;;;16.80;70.70;;;;;;999322;22;20512;-92
2022/11/01 10:24:04;;;;;;;5.43;2.25;;;16.80;64.70;;;;;;5036048;28;20184;-91
2022/11/01 10:26:32;;;;;;;2.40;2.20;;;16.80;64.40;;;;;;5037017;28;20169;-92
2022/11/01 10:29:16;;;;;;;3.33;2.47;;;16.80;64.70;;;;;;5052819;28;20179;-92
2022/11/01 10:31:50;;;;;;;5.10;2.75;;;16.80;65.10;;;;;;5037524;28;20260;-92
2022/11/01 10:34:31;;;;;;;4.93;2.38;;;16.90;64.20;;;;;;5039755;28;20200;-92
2022/11/01 10:37:35;;;;;;;6.00;2.42;;;17.00;65.60;;;;;;5038079;28;20160;-92
2022/11/01 10:40:18;;;;;;;5.93;2.40;;;17.10;65.90;;;;;;5037661;28;20184;-91
2022/11/01 10:42:47;;;;;;;6.07;2.50;;;17.00;65.10;;;;;;5037453;28;20203;-92
2022/11/01 10:45:22;;;;;;;6.90;2.40;;;17.00;65.10;;;;;;5034390;28;20176;-92
2022/11/01 10:47:52;;;;;;;5.70;2.55;;;17.00;63.30;;;;;;5035697;28;20160;-92
2022/11/01 10:50:28;;;;;;;5.60;2.28;;;17.00;63.80;;;;;;5031447;28;20192;-92
2022/11/01 10:53:10;;;;;;;8.18;2.50;;;17.00;63.40;;;;;;5023901;28;20291;-90
2022/11/01 10:55:56;;;;;;;5.95;2.67;;;17.00;63.40;;;;;;5050176;28;20185;-92
2022/11/01 10:58:35;;;;;;;7.50;2.67;;;17.00;63.90;;;;;;5044892;28;20176;-91
2022/11/01 11:01:04;;;;;;;9.30;2.60;;;17.00;63.90;;;;;;5026844;28;20176;-91
2022/11/01 11:03:33;;;;;;;7.68;2.83;;;17.00;64.20;;;;;;5022364;28;20199;-91
2022/11/01 11:06:07;;;;;;;10.13;2.75;;;17.10;64.00;;;;;;5022966;28;20177;-91
2022/11/01 11:08:38;;;;;;;7.85;2.83;;;17.10;65.10;;;;;;5022891;28;20164;-91
2022/11/01 11:11:09;;;;;;;9.68;3.70;;;17.00;63.30;;;;;;5025214;28;20191;-91
2022/11/01 11:13:35;;;;;;;18.23;3.65;;;17.00;64.00;;;;;;5020808;28;20172;-91
2022/11/01 11:16:05;;;;;;;8.02;3.35;;;16.90;63.10;;;;;;5046234;28;20200;-91
2022/11/01 11:18:37;;;;;;;8.10;3.25;;;16.90;63.20;;;;;;5034424;28;20157;-91
2022/11/01 11:21:10;;;;;;;12.38;4.03;;;16.90;64.20;;;;;;5022214;28;20169;-90
2022/11/01 11:23:42;;;;;;;13.07;3.80;;;16.90;62.70;;;;;;5023891;28;20200;-91
2022/11/01 11:26:15;;;;;;;12.15;3.33;;;17.10;64.70;;;;;;5028215;28;20789;-91
2022/11/01 11:28:46;;;;;;;10.05;3.17;;;17.20;63.10;;;;;;5024463;28;20173;-90
2022/11/01 11:31:27;;;;;;;8.80;3.17;;;17.10;62.50;;;;;;5022500;28;20276;-91
2022/11/01 11:33:56;;;;;;;13.15;2.92;;;17.10;62.70;;;;;;5048740;28;20148;-91
2022/11/01 11:36:28;;;;;;;10.93;3.65;;;17.30;63.20;;;;;;5028037;28;20193;-91
2022/11/01 11:38:54;;;;;;;8.27;3.50;;;17.10;64.20;;;;;;5025060;28;20177;-90
2022/11/01 11:41:35;;;;;;;18.65;3.47;;;17.30;64.00;;;;;;5023159;28;20196;-90
2022/11/01 11:44:02;;;;;;;11.38;4.10;;;17.30;61.70;;;;;;5026055;28;20267;-90
2022/11/01 11:46:30;;;;;;;10.60;3.53;;;17.00;62.60;;;;;;5021756;28;20177;-89
2022/11/01 11:49:03;;;;;;;10.18;3.60;;;16.90;61.60;;;;;;5025070;28;20258;-91
2022/11/01 11:51:36;;;;;;;10.15;3.60;;;17.00;62.60;;;;;;5023043;28;20193;-91
2022/11/01 11:54:23;;;;;;;9.32;3.28;;;17.20;63.60;;;;;;5028162;28;20156;-91
2022/11/01 11:56:51;;;;;;;14.27;3.85;;;17.10;62.30;;;;;;5027929;28;20256;-91
2022/11/01 11:59:33;;;;;;;9.73;3.13;;;17.10;61.90;;;;;;5045149;28;20176;-92
2022/11/01 12:02:04;;;;;;;14.25;4.10;;;17.10;62.50;;;;;;5031163;28;20196;-91
2022/11/01 12:04:40;;;;;;;13.80;4.25;;;17.20;62.60;;;;;;5030066;28;20179;-91
2022/11/01 12:07:19;;;;;;;11.60;3.78;;;17.20;63.20;;;;;;5028205;28;20180;-92
2022/11/01 12:09:47;;;;;;;14.10;4.45;;;17.20;63.00;;;;;;5028339;28;20173;-91
2022/11/01 12:12:26;;;;;;;12.75;3.30;;;17.20;61.70;;;;;;5027705;28;20592;-91
2022/11/01 12:14:54;;;;;;;7.93;3.20;;;17.10;61.20;;;;;;5028885;28;20189;-91
2022/11/01 12:17:27;;;;;;;13.85;3.47;;;17.10;60.80;;;;;;5028237;28;20180;-92
2022/11/01 12:20:06;;;;;;;16.77;4.55;;;17.10;61.10;;;;;;5026626;28;20184;-92
2022/11/01 12:22:33;;;;;;;13.68;4.25;;;17.10;60.90;;;;;;5043684;28;20197;-91
2022/11/01 12:25:04;;;;;;;13.68;3.92;;;17.00;60.50;;;;;;5026341;28;20177;-91
2022/11/01 12:27:33;;;;;;;17.70;3.97;;;17.10;61.30;;;;;;5048649;28;20168;-92
2022/11/01 12:30:07;;;;;;;14.65;4.10;;;17.30;61.20;;;;;;5030374;28;20206;-92
2022/11/01 12:32:56;;;;;;;13.52;4.07;;;17.30;61.30;;;;;;5028722;28;20195;-92
2022/11/01 12:35:39;;;;;;;13.48;4.25;;;17.20;60.10;;;;;;5030922;28;20196;-92
2022/11/01 12:38:31;;;;;;;13.85;4.05;;;17.20;59.30;;;;;;5030094;28;20260;-92
2022/11/01 12:41:09;;;;;;;21.35;4.45;;;17.30;59.60;;;;;;5032480;28;20214;-91
2022/11/01 12:43:55;;;;;;;18.38;4.43;;;17.20;60.40;;;;;;5030678;28;20182;-92
2022/11/01 12:46:32;;;;;;;12.90;4.18;;;17.30;59.40;;;;;;5030935;28;20173;-92
2022/11/01 12:49:43;;;;;;;10.80;4.38;;;17.20;60.50;;;;;;5029985;28;20172;-92
2022/11/01 12:52:46;;;;;;;12.43;3.78;;;17.30;60.50;;;;;;5029772;28;20220;-92
2022/11/01 12:55:17;;;;;;;14.70;4.22;;;17.20;59.90;;;;;;5033487;28;20216;-91
2022/11/01 12:57:46;;;;;;;12.90;4.15;;;17.20;60.90;;;;;;5028357;28;20169;-92
2022/11/01 13:00:17;;;;;;;15.35;4.50;;;17.30;60.90;;;;;;5028615;28;20240;-91
2022/11/01 13:03:05;;;;;;;17.73;4.28;;;17.30;60.10;;;;;;5043962;28;20185;-89
2022/11/01 13:05:59;;;;;;;14.38;4.65;;;17.30;59.90;;;;;;5016828;28;20631;-89
2022/11/01 13:08:37;;;;;;;12.15;4.07;;;17.60;60.60;;;;;;5017252;28;20203;-88
2022/11/01 13:11:17;;;;;;;12.90;4.57;;;17.50;59.80;;;;;;5016172;28;20173;-88
2022/11/01 13:13:51;;;;;;;13.82;4.55;;;17.30;60.30;;;;;;5017336;28;20632;-91
2022/11/01 13:16:29;;;;;;;18.30;4.55;;;17.20;61.70;;;;;;5034936;28;20188;-89
2022/11/01 13:19:09;;;;;;;12.98;4.13;;;17.10;61.10;;;;;;5016754;28;20161;-88
2022/11/01 13:21:57;;;;;;;13.48;4.05;;;16.80;61.90;;;;;;5015988;28;20291;-86
2022/11/01 13:24:30;;;;;;;20.50;5.32;;;16.90;62.80;;;;;;5016291;28;20651;-87
2022/11/01 13:27:29;;;;;;;12.82;4.40;;;16.70;62.30;;;;;;5015539;28;20177;-86
2022/11/01 13:30:09;;;;;;;12.65;4.55;;;16.60;63.20;;;;;;5033244;28;20149;-86
2022/11/01 13:32:35;;;;;;;20.02;4.85;;;16.70;63.30;;;;;;5015386;28;20736;-86
2022/11/01 13:35:20;;;;;;;18.27;4.95;;;16.70;64.90;;;;;;5015292;28;20292;-86
2022/11/01 13:37:54;;;;;;;15.77;4.38;;;17.00;64.00;;;;;;5018644;28;20172;-86